SpainFixed distance
Long Trail Guara Somontano
5–6 Oct2013
Distance
50km
Finishers
154135 men19 women
Winning time
4:45:47h
Median pace
6.55km/h
Pace distribution
154 finishers · 4.75–10.50 km/h · mean 6.70
Every finisher ran the same 50 km course, so these paces are directly comparable.
Histogram of finisher pace. 154 finishers ranged from 4.75 to 10.50 kilometres per hour, with a mean of 6.70 and a median of 6.55. The busiest band is 5.5 to 6.0 kilometres per hour, with 34 finishers.
Results
Ranks 101–150 of 154
| Rank | Runner | Time | Pace | Cat. | Placing |
|---|---|---|---|---|---|
| 101 | *Onda | 8:07:15h | 6.16 | M35 | 97th M · 16th M35 |
| 102 | Alerta Ekke | 8:07:17h | 6.16 | — | 98th M |
| 103 | Ae Ekke | 8:07:18h | 6.16 | W35 | 5th F · 1st W35 |
| 104 | Los Cebollas | 8:11:12h | 6.11 | — | 99th M |
| 105 | Fondeguilla Amics Volt... | 8:15:09h | 6.06 | W45 | 6th F · 1st W45 |
| 106 | Montañeros De Aragon | 8:15:10h | 6.06 | M35 | 100th M · 17th M35 |
| 107 | Ac Pouilon | 8:16:48h | 6.04 | M50 | 101st M · 4th M50 |
| 108 | Ventolin Team | 8:18:37h | 6.02 | — | 102nd M |
| 109 | *Alcalá De Henares | 8:18:43h | 6.01 | — | 103rd M |
| 110 | Club Atletic Igualada | 8:22:38h | 5.97 | — | 104th M |
| 111 | *Ondarroa | 8:23:00h | 5.96 | M45 | 105th M · 7th M45 |
| 112 | *Talavera De La Reina | 8:24:47h | 5.94 | M35 | 106th M · 18th M35 |
| 113 | *Marinaleda | 8:27:47h | 5.91 | — | 7th F |
| 114 | *Vejer De La Frontera | 8:27:48h | 5.91 | — | 8th F |
| 115 | *Barbastro | 8:27:55h | 5.91 | M23 | 107th M · 21st M23 |
| 116 | *Bruges | 8:27:58h | 5.91 | W40 | 9th F · 2nd W40 |
| 117 | *Lee | 8:27:59h | 5.91 | — | 10th F |
| 118 | *Lleida | 8:28:02h | 5.91 | M35 | 108th M · 19th M35 |
| 119 | *Nay | 8:28:10h | 5.90 | M40 | 109th M · 9th M40 |
| 120 | Que Pressat | 8:28:15h | 5.90 | M45 | 110th M · 8th M45 |
| 121 | Club Vasco De Camping ... | 8:31:40h | 5.86 | W45 | 11th F · 2nd W45 |
| 122 | Club Vasco De Camping ... | 8:31:41h | 5.86 | M50 | 111th M · 5th M50 |
| 123 | *Vilafames | 8:36:25h | 5.81 | M45 | 112th M · 9th M45 |
| 124 | Club Deportivo Norte M... | 8:38:43h | 5.78 | M50 | 113th M · 6th M50 |
| 125 | Bagil Team | 8:38:45h | 5.78 | — | 114th M |
| 126 | *Denat | 8:38:49h | 5.78 | — | 115th M |
| 127 | Natació Lleida | 8:39:06h | 5.78 | — | 116th M |
| 128 | *Lleida | 8:39:10h | 5.78 | M40 | 117th M · 10th M40 |
| 129 | Alpino Mendi Taldea | 8:43:43h | 5.73 | M23 | 118th M · 22nd M23 |
| 130 | Alpino Mendi Taldea | 8:43:45h | 5.73 | — | 119th M |
| 131 | *Pamplona | 8:49:19h | 5.67 | M35 | 120th M · 20th M35 |
| 132 | *Ontinar De Salz | 8:49:40h | 5.66 | — | 121st M |
| 133 | Intemperie | 8:50:16h | 5.66 | W35 | 12th F · 2nd W35 |
| 134 | Intemperie | 8:50:17h | 5.66 | M35 | 122nd M · 21st M35 |
| 135 | *Madrid | 8:52:37h | 5.63 | — | 123rd M |
| 136 | *Zaragoza | 8:54:42h | 5.61 | — | 124th M |
| 137 | Triatlon Janeiro Non Stop | 8:54:43h | 5.61 | M23 | 125th M · 23rd M23 |
| 138 | Club Atletismo Barbastro | 8:55:43h | 5.60 | — | 13th F |
| 139 | Cab | 8:55:44h | 5.60 | W45 | 14th F · 3rd W45 |
| 140 | Club Atletismo Barbastro | 8:55:45h | 5.60 | M50 | 126th M · 7th M50 |
| 141 | Club Deportivo Norte M... | 8:55:51h | 5.60 | MU23 | 127th M · 2nd MU23 |
| 142 | *Blagnac | 9:01:09h | 5.54 | — | 128th M |
| 143 | Bagil Team | 9:01:16h | 5.54 | M40 | 129th M · 11th M40 |
| 144 | Running Zaragoza | 9:13:17h | 5.42 | — | 130th M |
| 145 | Ekke | 9:24:31h | 5.31 | M35 | 131st M · 22nd M35 |
| 146 | Stadium Casablanca | 9:40:02h | 5.17 | — | 15th F |
| 147 | Club Excursionista Alp... | 9:40:04h | 5.17 | M45 | 132nd M · 10th M45 |
| 148 | *Benavent De Segriá | 9:40:05h | 5.17 | W45 | 16th F · 4th W45 |
| 149 | *Benavent De Segriá | 9:40:06h | 5.17 | M40 | 133rd M · 12th M40 |
| 150 | Gm Valpertuna | 9:56:32h | 5.03 | M35 | 134th M · 23rd M35 |
- 101*Onda97th M · 16th M35Time8:07:15hPace6.16Cat.M35
- 102Alerta Ekke98th MTime8:07:17hPace6.16
- 103Ae Ekke5th F · 1st W35Time8:07:18hPace6.16Cat.W35
- 104Los Cebollas99th MTime8:11:12hPace6.11
- 105Fondeguilla Amics Volt...6th F · 1st W45Time8:15:09hPace6.06Cat.W45
- 106Montañeros De Aragon100th M · 17th M35Time8:15:10hPace6.06Cat.M35
- 107Ac Pouilon101st M · 4th M50Time8:16:48hPace6.04Cat.M50
- 108Ventolin Team102nd MTime8:18:37hPace6.02
- 109*Alcalá De Henares103rd MTime8:18:43hPace6.01
- 110Club Atletic Igualada104th MTime8:22:38hPace5.97
- 111*Ondarroa105th M · 7th M45Time8:23:00hPace5.96Cat.M45
- 112*Talavera De La Reina106th M · 18th M35Time8:24:47hPace5.94Cat.M35
- 113*Marinaleda7th FTime8:27:47hPace5.91
- 114*Vejer De La Frontera8th FTime8:27:48hPace5.91
- 115*Barbastro107th M · 21st M23Time8:27:55hPace5.91Cat.M23
- 116*Bruges9th F · 2nd W40Time8:27:58hPace5.91Cat.W40
- 117*Lee10th FTime8:27:59hPace5.91
- 118*Lleida108th M · 19th M35Time8:28:02hPace5.91Cat.M35
- 119*Nay109th M · 9th M40Time8:28:10hPace5.90Cat.M40
- 120Que Pressat110th M · 8th M45Time8:28:15hPace5.90Cat.M45
- 121Club Vasco De Camping ...11th F · 2nd W45Time8:31:40hPace5.86Cat.W45
- 122Club Vasco De Camping ...111th M · 5th M50Time8:31:41hPace5.86Cat.M50
- 123*Vilafames112th M · 9th M45Time8:36:25hPace5.81Cat.M45
- 124Club Deportivo Norte M...113th M · 6th M50Time8:38:43hPace5.78Cat.M50
- 125Bagil Team114th MTime8:38:45hPace5.78
- 126*Denat115th MTime8:38:49hPace5.78
- 127Natació Lleida116th MTime8:39:06hPace5.78
- 128*Lleida117th M · 10th M40Time8:39:10hPace5.78Cat.M40
- 129Alpino Mendi Taldea118th M · 22nd M23Time8:43:43hPace5.73Cat.M23
- 130Alpino Mendi Taldea119th MTime8:43:45hPace5.73
- 131*Pamplona120th M · 20th M35Time8:49:19hPace5.67Cat.M35
- 132*Ontinar De Salz121st MTime8:49:40hPace5.66
- 133Intemperie12th F · 2nd W35Time8:50:16hPace5.66Cat.W35
- 134Intemperie122nd M · 21st M35Time8:50:17hPace5.66Cat.M35
- 135*Madrid123rd MTime8:52:37hPace5.63
- 136*Zaragoza124th MTime8:54:42hPace5.61
- 137Triatlon Janeiro Non Stop125th M · 23rd M23Time8:54:43hPace5.61Cat.M23
- 138Club Atletismo Barbastro13th FTime8:55:43hPace5.60
- 139Cab14th F · 3rd W45Time8:55:44hPace5.60Cat.W45
- 140Club Atletismo Barbastro126th M · 7th M50Time8:55:45hPace5.60Cat.M50
- 141Club Deportivo Norte M...127th M · 2nd MU23Time8:55:51hPace5.60Cat.MU23
- 142*Blagnac128th MTime9:01:09hPace5.54
- 143Bagil Team129th M · 11th M40Time9:01:16hPace5.54Cat.M40
- 144Running Zaragoza130th MTime9:13:17hPace5.42
- 145Ekke131st M · 22nd M35Time9:24:31hPace5.31Cat.M35
- 146Stadium Casablanca15th FTime9:40:02hPace5.17
- 147Club Excursionista Alp...132nd M · 10th M45Time9:40:04hPace5.17Cat.M45
- 148*Benavent De Segriá16th F · 4th W45Time9:40:05hPace5.17Cat.W45
- 149*Benavent De Segriá133rd M · 12th M40Time9:40:06hPace5.17Cat.M40
- 150Gm Valpertuna134th M · 23rd M35Time9:56:32hPace5.03Cat.M35
Showing ranks 101–150 of 154